sensor_id;sensor_type;location;lat;lon;timestamp;pressure;altitude;pressure_sealevel;temperature
43802;BMP280;29429;51.074;13.764;2023-08-17T00:01:41;100224.44;;;22.54
43802;BMP280;29429;51.074;13.764;2023-08-17T00:04:08;100224.19;;;22.50
43802;BMP280;29429;51.074;13.764;2023-08-17T00:06:35;100216.81;;;22.45
43802;BMP280;29429;51.074;13.764;2023-08-17T00:09:03;100219.00;;;22.43
43802;BMP280;29429;51.074;13.764;2023-08-17T00:11:30;100217.09;;;22.44
43802;BMP280;29429;51.074;13.764;2023-08-17T00:13:57;100210.59;;;22.45
43802;BMP280;29429;51.074;13.764;2023-08-17T00:16:25;100209.47;;;22.51
43802;BMP280;29429;51.074;13.764;2023-08-17T00:18:52;100204.06;;;22.46
43802;BMP280;29429;51.074;13.764;2023-08-17T00:21:19;100194.53;;;22.43
43802;BMP280;29429;51.074;13.764;2023-08-17T00:23:46;100199.44;;;22.41
43802;BMP280;29429;51.074;13.764;2023-08-17T00:26:13;100194.25;;;22.35
43802;BMP280;29429;51.074;13.764;2023-08-17T00:28:41;100196.97;;;22.30
43802;BMP280;29429;51.074;13.764;2023-08-17T00:31:10;100195.88;;;22.21
43802;BMP280;29429;51.074;13.764;2023-08-17T00:33:37;100185.81;;;22.11
43802;BMP280;29429;51.074;13.764;2023-08-17T00:36:04;100180.09;;;22.13
43802;BMP280;29429;51.074;13.764;2023-08-17T00:38:32;100175.75;;;22.17
43802;BMP280;29429;51.074;13.764;2023-08-17T00:40:59;100161.09;;;22.13
43802;BMP280;29429;51.074;13.764;2023-08-17T00:43:26;100161.88;;;22.08
43802;BMP280;29429;51.074;13.764;2023-08-17T00:45:55;100159.97;;;22.04
43802;BMP280;29429;51.074;13.764;2023-08-17T00:48:23;100159.44;;;22.02
43802;BMP280;29429;51.074;13.764;2023-08-17T00:50:52;100157.25;;;21.99
43802;BMP280;29429;51.074;13.764;2023-08-17T00:53:20;100164.03;;;21.96
43802;BMP280;29429;51.074;13.764;2023-08-17T00:55:52;100160.50;;;21.91
43802;BMP280;29429;51.074;13.764;2023-08-17T00:58:21;100161.03;;;21.88
43802;BMP280;29429;51.074;13.764;2023-08-17T01:00:48;100162.34;;;21.85
43802;BMP280;29429;51.074;13.764;2023-08-17T01:03:17;100155.84;;;21.81
43802;BMP280;29429;51.074;13.764;2023-08-17T01:05:45;100162.88;;;21.77
43802;BMP280;29429;51.074;13.764;2023-08-17T01:08:12;100167.25;;;21.78
43802;BMP280;29429;51.074;13.764;2023-08-17T01:10:51;100159.91;;;21.73
43802;BMP280;29429;51.074;13.764;2023-08-17T01:13:31;100167.47;;;21.71
43802;BMP280;29429;51.074;13.764;2023-08-17T01:16:05;100172.13;;;21.71
43802;BMP280;29429;51.074;13.764;2023-08-17T01:18:36;100184.31;;;21.68
43802;BMP280;29429;51.074;13.764;2023-08-17T01:21:09;100185.38;;;21.62
43802;BMP280;29429;51.074;13.764;2023-08-17T01:23:37;100191.88;;;21.56
43802;BMP280;29429;51.074;13.764;2023-08-17T01:26:04;100191.59;;;21.58
43802;BMP280;29429;51.074;13.764;2023-08-17T01:28:31;100188.34;;;21.56
43802;BMP280;29429;51.074;13.764;2023-08-17T01:31:11;100183.19;;;21.59
43802;BMP280;29429;51.074;13.764;2023-08-17T01:33:49;100195.66;;;21.55
43802;BMP280;29429;51.074;13.764;2023-08-17T01:36:43;100195.09;;;21.48
43802;BMP280;29429;51.074;13.764;2023-08-17T01:39:16;100189.63;;;21.38
43802;BMP280;29429;51.074;13.764;2023-08-17T01:41:47;100208.59;;;21.33
43802;BMP280;29429;51.074;13.764;2023-08-17T01:44:14;100212.69;;;21.36
43802;BMP280;29429;51.074;13.764;2023-08-17T01:46:42;100203.19;;;21.38
43802;BMP280;29429;51.074;13.764;2023-08-17T01:49:09;100205.38;;;21.41
43802;BMP280;29429;51.074;13.764;2023-08-17T01:51:37;100208.09;;;21.36
43802;BMP280;29429;51.074;13.764;2023-08-17T01:54:04;100215.13;;;21.37
43802;BMP280;29429;51.074;13.764;2023-08-17T01:56:32;100211.88;;;21.35
43802;BMP280;29429;51.074;13.764;2023-08-17T01:58:59;100204.78;;;21.34
43802;BMP280;29429;51.074;13.764;2023-08-17T02:01:27;100204.25;;;21.32
43802;BMP280;29429;51.074;13.764;2023-08-17T02:03:55;100208.31;;;21.30
43802;BMP280;29429;51.074;13.764;2023-08-17T02:06:22;100203.13;;;21.23
43802;BMP280;29429;51.074;13.764;2023-08-17T02:08:49;100212.31;;;21.17
43802;BMP280;29429;51.074;13.764;2023-08-17T02:11:16;100209.59;;;21.17
43802;BMP280;29429;51.074;13.764;2023-08-17T02:13:43;100193.03;;;21.13
43802;BMP280;29429;51.074;13.764;2023-08-17T02:16:11;100192.19;;;21.13
43802;BMP280;29429;51.074;13.764;2023-08-17T02:18:38;100190.84;;;21.15
43802;BMP280;29429;51.074;13.764;2023-08-17T02:21:05;100188.94;;;21.11
43802;BMP280;29429;51.074;13.764;2023-08-17T02:23:32;100195.19;;;21.11
43802;BMP280;29429;51.074;13.764;2023-08-17T02:25:59;100204.69;;;21.14
43802;BMP280;29429;51.074;13.764;2023-08-17T02:28:26;100207.41;;;21.14
43802;BMP280;29429;51.074;13.764;2023-08-17T02:30:57;100195.50;;;21.15
43802;BMP280;29429;51.074;13.764;2023-08-17T02:33:27;100206.34;;;21.15
43802;BMP280;29429;51.074;13.764;2023-08-17T02:35:54;100199.00;;;21.15
43802;BMP280;29429;51.074;13.764;2023-08-17T02:38:21;100197.38;;;21.14
43802;BMP280;29429;51.074;13.764;2023-08-17T02:40:49;100207.97;;;21.16
43802;BMP280;29429;51.074;13.764;2023-08-17T02:43:16;100209.31;;;21.18
43802;BMP280;29429;51.074;13.764;2023-08-17T02:45:43;100208.78;;;21.16
43802;BMP280;29429;51.074;13.764;2023-08-17T02:48:10;100212.34;;;21.22
43802;BMP280;29429;51.074;13.764;2023-08-17T02:50:37;100222.38;;;21.21
43802;BMP280;29429;51.074;13.764;2023-08-17T02:53:06;100213.16;;;21.22
43802;BMP280;29429;51.074;13.764;2023-08-17T02:55:33;100200.69;;;21.27
43802;BMP280;29429;51.074;13.764;2023-08-17T02:58:00;100200.47;;;21.33
43802;BMP280;29429;51.074;13.764;2023-08-17T03:00:27;100204.28;;;21.37
43802;BMP280;29429;51.074;13.764;2023-08-17T03:02:54;100215.72;;;21.44
43802;BMP280;29429;51.074;13.764;2023-08-17T03:05:22;100211.38;;;21.48
43802;BMP280;29429;51.074;13.764;2023-08-17T03:07:49;100201.06;;;21.50
43802;BMP280;29429;51.074;13.764;2023-08-17T03:10:17;100198.94;;;21.52
43802;BMP280;29429;51.074;13.764;2023-08-17T03:12:45;100199.47;;;21.54
43802;BMP280;29429;51.074;13.764;2023-08-17T03:15:12;100195.13;;;21.58
43802;BMP280;29429;51.074;13.764;2023-08-17T03:17:39;100204.91;;;21.54
43802;BMP280;29429;51.074;13.764;2023-08-17T03:20:07;100203.25;;;21.53
43802;BMP280;29429;51.074;13.764;2023-08-17T03:22:34;100216.00;;;21.48
43802;BMP280;29429;51.074;13.764;2023-08-17T03:25:02;100219.81;;;21.47
43802;BMP280;29429;51.074;13.764;2023-08-17T03:27:29;100217.88;;;21.42
43802;BMP280;29429;51.074;13.764;2023-08-17T03:29:56;100211.34;;;21.38
43802;BMP280;29429;51.074;13.764;2023-08-17T03:32:23;100213.50;;;21.36
43802;BMP280;29429;51.074;13.764;2023-08-17T03:34:50;100215.09;;;21.32
43802;BMP280;29429;51.074;13.764;2023-08-17T03:37:17;100209.41;;;21.29
43802;BMP280;29429;51.074;13.764;2023-08-17T03:39:44;100211.31;;;21.28
43802;BMP280;29429;51.074;13.764;2023-08-17T03:42:12;100206.41;;;21.25
43802;BMP280;29429;51.074;13.764;2023-08-17T03:44:39;100203.41;;;21.27
43802;BMP280;29429;51.074;13.764;2023-08-17T03:47:06;100213.16;;;21.22
43802;BMP280;29429;51.074;13.764;2023-08-17T03:49:33;100211.78;;;21.20
43802;BMP280;29429;51.074;13.764;2023-08-17T03:52:01;100204.47;;;21.20
43802;BMP280;29429;51.074;13.764;2023-08-17T03:54:28;100200.34;;;21.13
43802;BMP280;29429;51.074;13.764;2023-08-17T03:56:55;100214.75;;;21.18
43802;BMP280;29429;51.074;13.764;2023-08-17T03:59:22;100209.31;;;21.13
43802;BMP280;29429;51.074;13.764;2023-08-17T04:01:50;100209.81;;;21.10
43802;BMP280;29429;51.074;13.764;2023-08-17T04:04:17;100202.78;;;21.09
43802;BMP280;29429;51.074;13.764;2023-08-17T04:06:45;100201.44;;;21.12
43802;BMP280;29429;51.074;13.764;2023-08-17T04:09:12;100194.66;;;21.14
43802;BMP280;29429;51.074;13.764;2023-08-17T04:11:40;100206.88;;;21.17
43802;BMP280;29429;51.074;13.764;2023-08-17T04:14:07;100215.03;;;21.17
43802;BMP280;29429;51.074;13.764;2023-08-17T04:16:35;100210.13;;;21.14
43802;BMP280;29429;51.074;13.764;2023-08-17T04:19:03;100217.75;;;21.17
43802;BMP280;29429;51.074;13.764;2023-08-17T04:21:30;100211.78;;;21.15
43802;BMP280;29429;51.074;13.764;2023-08-17T04:23:57;100221.56;;;21.21
43802;BMP280;29429;51.074;13.764;2023-08-17T04:26:24;100222.69;;;21.25
43802;BMP280;29429;51.074;13.764;2023-08-17T04:28:51;100211.84;;;21.30
43802;BMP280;29429;51.074;13.764;2023-08-17T04:31:19;100211.88;;;21.35
43802;BMP280;29429;51.074;13.764;2023-08-17T04:33:54;100208.09;;;21.41
43802;BMP280;29429;51.074;13.764;2023-08-17T04:36:21;100207.03;;;21.47
43802;BMP280;29429;51.074;13.764;2023-08-17T04:38:48;100217.38;;;21.55
43802;BMP280;29429;51.074;13.764;2023-08-17T04:41:15;100222.59;;;21.62
43802;BMP280;29429;51.074;13.764;2023-08-17T04:43:43;100223.13;;;21.69
43802;BMP280;29429;51.074;13.764;2023-08-17T04:46:13;100222.91;;;21.75
43802;BMP280;29429;51.074;13.764;2023-08-17T04:48:41;100209.88;;;21.77
43802;BMP280;29429;51.074;13.764;2023-08-17T04:51:08;100225.41;;;21.87
43802;BMP280;29429;51.074;13.764;2023-08-17T04:53:35;100230.06;;;21.97
43802;BMP280;29429;51.074;13.764;2023-08-17T04:56:03;100231.16;;;21.96
43802;BMP280;29429;51.074;13.764;2023-08-17T04:58:31;100234.69;;;21.96
43802;BMP280;29429;51.074;13.764;2023-08-17T05:00:59;100239.31;;;22.01
43802;BMP280;29429;51.074;13.764;2023-08-17T05:03:26;100250.47;;;22.09
43802;BMP280;29429;51.074;13.764;2023-08-17T05:06:01;100257.81;;;22.14
43802;BMP280;29429;51.074;13.764;2023-08-17T05:08:28;100250.78;;;22.23
43802;BMP280;29429;51.074;13.764;2023-08-17T05:10:55;100244.81;;;22.26
43802;BMP280;29429;51.074;13.764;2023-08-17T05:13:24;100264.69;;;22.36
43802;BMP280;29429;51.074;13.764;2023-08-17T05:15:53;100269.06;;;22.48
43802;BMP280;29429;51.074;13.764;2023-08-17T05:18:21;100257.59;;;22.51
43802;BMP280;29429;51.074;13.764;2023-08-17T05:20:49;100241.59;;;22.49
43802;BMP280;29429;51.074;13.764;2023-08-17T05:23:16;100254.97;;;22.66
43802;BMP280;29429;51.074;13.764;2023-08-17T05:25:47;100262.56;;;22.74
43802;BMP280;29429;51.074;13.764;2023-08-17T05:28:15;100254.94;;;22.71
43802;BMP280;29429;51.074;13.764;2023-08-17T05:30:43;100255.78;;;22.76
43802;BMP280;29429;51.074;13.764;2023-08-17T05:33:10;100245.97;;;22.85
43802;BMP280;29429;51.074;13.764;2023-08-17T05:35:38;100242.16;;;22.91
43802;BMP280;29429;51.074;13.764;2023-08-17T05:38:05;100241.59;;;22.94
43802;BMP280;29429;51.074;13.764;2023-08-17T05:40:32;100244.88;;;22.96
43802;BMP280;29429;51.074;13.764;2023-08-17T05:43:00;100242.66;;;23.03
43802;BMP280;29429;51.074;13.764;2023-08-17T05:45:27;100253.81;;;23.12
43802;BMP280;29429;51.074;13.764;2023-08-17T05:47:54;100266.34;;;23.18
43802;BMP280;29429;51.074;13.764;2023-08-17T05:50:21;100267.97;;;23.14
43802;BMP280;29429;51.074;13.764;2023-08-17T05:52:49;100270.97;;;23.18
43802;BMP280;29429;51.074;13.764;2023-08-17T05:55:16;100261.72;;;23.19
43802;BMP280;29429;51.074;13.764;2023-08-17T05:57:43;100273.44;;;23.24
43802;BMP280;29429;51.074;13.764;2023-08-17T06:00:11;100284.28;;;23.34
43802;BMP280;29429;51.074;13.764;2023-08-17T06:02:42;100278.31;;;23.32
43802;BMP280;29429;51.074;13.764;2023-08-17T06:05:09;100280.47;;;23.25
43802;BMP280;29429;51.074;13.764;2023-08-17T06:07:36;100279.13;;;23.23
43802;BMP280;29429;51.074;13.764;2023-08-17T06:10:04;100282.97;;;23.22
43802;BMP280;29429;51.074;13.764;2023-08-17T06:12:33;100280.22;;;23.12
43802;BMP280;29429;51.074;13.764;2023-08-17T06:15:02;100284.06;;;23.11
43802;BMP280;29429;51.074;13.764;2023-08-17T06:17:30;100293.81;;;23.17
43802;BMP280;29429;51.074;13.764;2023-08-17T06:19:57;100293.56;;;23.18
43802;BMP280;29429;51.074;13.764;2023-08-17T06:22:24;100292.50;;;23.19
43802;BMP280;29429;51.074;13.764;2023-08-17T06:24:51;100308.25;;;23.27
43802;BMP280;29429;51.074;13.764;2023-08-17T06:27:18;100299.81;;;23.34
43802;BMP280;29429;51.074;13.764;2023-08-17T06:29:46;100297.63;;;23.46
43802;BMP280;29429;51.074;13.764;2023-08-17T06:32:13;100292.16;;;23.46
43802;BMP280;29429;51.074;13.764;2023-08-17T06:34:41;100293.28;;;23.50
43802;BMP280;29429;51.074;13.764;2023-08-17T06:37:10;100305.22;;;23.54
43802;BMP280;29429;51.074;13.764;2023-08-17T06:39:37;100300.81;;;23.73
43802;BMP280;29429;51.074;13.764;2023-08-17T06:42:04;100302.94;;;23.91
43802;BMP280;29429;51.074;13.764;2023-08-17T06:44:32;100304.25;;;24.04
43802;BMP280;29429;51.074;13.764;2023-08-17T06:46:59;100303.16;;;24.10
43802;BMP280;29429;51.074;13.764;2023-08-17T06:49:26;100287.59;;;24.15
43802;BMP280;29429;51.074;13.764;2023-08-17T06:51:54;100291.41;;;24.19
43802;BMP280;29429;51.074;13.764;2023-08-17T06:54:21;100285.94;;;24.19
43802;BMP280;29429;51.074;13.764;2023-08-17T06:56:48;100291.91;;;24.27
43802;BMP280;29429;51.074;13.764;2023-08-17T06:59:15;100283.69;;;24.32
43802;BMP280;29429;51.074;13.764;2023-08-17T07:01:42;100277.94;;;24.33
43802;BMP280;29429;51.074;13.764;2023-08-17T07:04:09;100288.00;;;24.38
43802;BMP280;29429;51.074;13.764;2023-08-17T07:06:36;100280.09;;;24.36
43802;BMP280;29429;51.074;13.764;2023-08-17T07:09:03;100287.47;;;24.41
43802;BMP280;29429;51.074;13.764;2023-08-17T07:11:32;100280.91;;;24.37
43802;BMP280;29429;51.074;13.764;2023-08-17T07:13:59;100278.44;;;24.40
43802;BMP280;29429;51.074;13.764;2023-08-17T07:16:27;100272.97;;;24.45
43802;BMP280;29429;51.074;13.764;2023-08-17T07:18:55;100271.25;;;24.54
43802;BMP280;29429;51.074;13.764;2023-08-17T07:21:22;100282.97;;;24.55
43802;BMP280;29429;51.074;13.764;2023-08-17T07:23:50;100278.59;;;24.59
43802;BMP280;29429;51.074;13.764;2023-08-17T07:26:17;100280.22;;;24.60
43802;BMP280;29429;51.074;13.764;2023-08-17T07:28:46;100274.19;;;24.63
43802;BMP280;29429;51.074;13.764;2023-08-17T07:31:13;100273.09;;;24.64
43802;BMP280;29429;51.074;13.764;2023-08-17T07:33:41;100287.00;;;24.67
43802;BMP280;29429;51.074;13.764;2023-08-17T07:36:08;100285.63;;;24.70
43802;BMP280;29429;51.074;13.764;2023-08-17T07:38:35;100280.94;;;24.70
43802;BMP280;29429;51.074;13.764;2023-08-17T07:41:02;100277.91;;;24.77
43802;BMP280;29429;51.074;13.764;2023-08-17T07:43:30;100277.84;;;24.87
43802;BMP280;29429;51.074;13.764;2023-08-17T07:45:57;100273.94;;;24.98
43802;BMP280;29429;51.074;13.764;2023-08-17T07:48:27;100270.84;;;25.10
43802;BMP280;29429;51.074;13.764;2023-08-17T07:51:00;100269.41;;;25.17
43802;BMP280;29429;51.074;13.764;2023-08-17T07:53:27;100263.94;;;25.17
43802;BMP280;29429;51.074;13.764;2023-08-17T07:55:54;100259.97;;;25.28
43802;BMP280;29429;51.074;13.764;2023-08-17T07:58:22;100255.00;;;25.35
43802;BMP280;29429;51.074;13.764;2023-08-17T08:00:49;100248.09;;;25.43
43802;BMP280;29429;51.074;13.764;2023-08-17T08:03:18;100246.69;;;25.46
43802;BMP280;29429;51.074;13.764;2023-08-17T08:05:46;100251.16;;;25.36
43802;BMP280;29429;51.074;13.764;2023-08-17T08:08:14;100246.75;;;25.40
43802;BMP280;29429;51.074;13.764;2023-08-17T08:10:43;100226.53;;;25.41
43802;BMP280;29429;51.074;13.764;2023-08-17T08:13:10;100225.97;;;25.39
43802;BMP280;29429;51.074;13.764;2023-08-17T08:15:37;100230.88;;;25.42
43802;BMP280;29429;51.074;13.764;2023-08-17T08:18:05;100230.78;;;25.53
43802;BMP280;29429;51.074;13.764;2023-08-17T08:20:32;100227.47;;;25.56
43802;BMP280;29429;51.074;13.764;2023-08-17T08:23:00;100227.34;;;25.66
43802;BMP280;29429;51.074;13.764;2023-08-17T08:25:27;100219.75;;;25.63
43802;BMP280;29429;51.074;13.764;2023-08-17T08:27:57;100226.31;;;25.62
43802;BMP280;29429;51.074;13.764;2023-08-17T08:30:26;100222.47;;;25.63
43802;BMP280;29429;51.074;13.764;2023-08-17T08:32:53;100215.31;;;25.67
43802;BMP280;29429;51.074;13.764;2023-08-17T08:35:22;100211.41;;;25.73
43802;BMP280;29429;51.074;13.764;2023-08-17T08:37:51;100204.72;;;25.84
43802;BMP280;29429;51.074;13.764;2023-08-17T08:40:19;100208.38;;;25.93
43802;BMP280;29429;51.074;13.764;2023-08-17T08:42:47;100205.22;;;26.05
43802;BMP280;29429;51.074;13.764;2023-08-17T08:45:14;100206.22;;;26.14
43802;BMP280;29429;51.074;13.764;2023-08-17T08:47:44;100208.50;;;26.25
43802;BMP280;29429;51.074;13.764;2023-08-17T08:50:20;100207.25;;;26.36
43802;BMP280;29429;51.074;13.764;2023-08-17T08:53:02;100204.69;;;26.40
43802;BMP280;29429;51.074;13.764;2023-08-17T08:55:40;100205.34;;;26.50
43802;BMP280;29429;51.074;13.764;2023-08-17T08:58:13;100195.28;;;26.65
43802;BMP280;29429;51.074;13.764;2023-08-17T09:00:41;100208.34;;;26.86
43802;BMP280;29429;51.074;13.764;2023-08-17T09:03:09;100200.47;;;27.12
43802;BMP280;29429;51.074;13.764;2023-08-17T09:05:38;100199.44;;;27.35
43802;BMP280;29429;51.074;13.764;2023-08-17T09:08:08;100192.91;;;27.50
43802;BMP280;29429;51.074;13.764;2023-08-17T09:10:42;100194.81;;;27.63
43802;BMP280;29429;51.074;13.764;2023-08-17T09:13:10;100181.44;;;27.61
43802;BMP280;29429;51.074;13.764;2023-08-17T09:15:37;100188.13;;;27.69
43802;BMP280;29429;51.074;13.764;2023-08-17T09:18:08;100182.59;;;27.83
43802;BMP280;29429;51.074;13.764;2023-08-17T09:20:47;100175.25;;;27.92
43802;BMP280;29429;51.074;13.764;2023-08-17T09:23:21;100173.94;;;27.89
43802;BMP280;29429;51.074;13.764;2023-08-17T09:25:50;100184.38;;;28.01
43802;BMP280;29429;51.074;13.764;2023-08-17T09:28:24;100174.31;;;27.96
43802;BMP280;29429;51.074;13.764;2023-08-17T09:31:00;100167.13;;;27.87
43802;BMP280;29429;51.074;13.764;2023-08-17T09:33:30;100172.38;;;27.97
43802;BMP280;29429;51.074;13.764;2023-08-17T09:35:59;100181.56;;;28.06
43802;BMP280;29429;51.074;13.764;2023-08-17T09:38:28;100177.44;;;28.17
43802;BMP280;29429;51.074;13.764;2023-08-17T09:40:57;100175.81;;;28.16
43802;BMP280;29429;51.074;13.764;2023-08-17T09:43:25;100173.16;;;28.24
43802;BMP280;29429;51.074;13.764;2023-08-17T09:45:56;100172.34;;;28.24
43802;BMP280;29429;51.074;13.764;2023-08-17T09:48:25;100174.25;;;28.23
43802;BMP280;29429;51.074;13.764;2023-08-17T09:50:58;100171.50;;;28.23
43802;BMP280;29429;51.074;13.764;2023-08-17T09:53:28;100167.59;;;28.16
43802;BMP280;29429;51.074;13.764;2023-08-17T09:55:57;100161.66;;;28.22
43802;BMP280;29429;51.074;13.764;2023-08-17T09:58:24;100156.00;;;28.19
43802;BMP280;29429;51.074;13.764;2023-08-17T10:01:05;100164.78;;;28.29
43802;BMP280;29429;51.074;13.764;2023-08-17T10:03:59;100161.22;;;28.29
43802;BMP280;29429;51.074;13.764;2023-08-17T10:06:29;100162.72;;;28.35
43802;BMP280;29429;51.074;13.764;2023-08-17T10:09:00;100147.50;;;28.29
43802;BMP280;29429;51.074;13.764;2023-08-17T10:11:35;100157.03;;;28.31
43802;BMP280;29429;51.074;13.764;2023-08-17T10:14:13;100162.59;;;28.40
43802;BMP280;29429;51.074;13.764;2023-08-17T10:16:45;100147.94;;;28.45
43802;BMP280;29429;51.074;13.764;2023-08-17T10:19:50;100143.75;;;28.47
43802;BMP280;29429;51.074;13.764;2023-08-17T10:22:33;100146.25;;;28.35
43802;BMP280;29429;51.074;13.764;2023-08-17T10:25:01;100145.50;;;28.43
43802;BMP280;29429;51.074;13.764;2023-08-17T10:27:34;100139.56;;;28.50
43802;BMP280;29429;51.074;13.764;2023-08-17T10:30:02;100145.50;;;28.65
43802;BMP280;29429;51.074;13.764;2023-08-17T10:32:36;100141.00;;;28.69
43802;BMP280;29429;51.074;13.764;2023-08-17T10:35:05;100143.81;;;28.78
43802;BMP280;29429;51.074;13.764;2023-08-17T10:37:33;100148.16;;;28.79
43802;BMP280;29429;51.074;13.764;2023-08-17T10:40:00;100146.56;;;28.86
43802;BMP280;29429;51.074;13.764;2023-08-17T10:42:36;100131.25;;;28.94
43802;BMP280;29429;51.074;13.764;2023-08-17T10:48:26;100123.69;;;28.99
43802;BMP280;29429;51.074;13.764;2023-08-17T10:51:03;100120.50;;;29.06
43802;BMP280;29429;51.074;13.764;2023-08-17T10:53:35;100119.84;;;29.09
43802;BMP280;29429;51.074;13.764;2023-08-17T10:56:07;100120.53;;;29.15
43802;BMP280;29429;51.074;13.764;2023-08-17T10:58:35;100111.53;;;29.23
43802;BMP280;29429;51.074;13.764;2023-08-17T11:01:02;100112.97;;;29.29
43802;BMP280;29429;51.074;13.764;2023-08-17T11:03:30;100108.13;;;29.34
43802;BMP280;29429;51.074;13.764;2023-08-17T11:06:14;100107.69;;;29.41
43802;BMP280;29429;51.074;13.764;2023-08-17T11:08:55;100111.22;;;29.50
43802;BMP280;29429;51.074;13.764;2023-08-17T11:11:23;100104.13;;;29.49
43802;BMP280;29429;51.074;13.764;2023-08-17T11:13:53;100112.88;;;29.51
43802;BMP280;29429;51.074;13.764;2023-08-17T11:16:25;100103.00;;;29.50
43802;BMP280;29429;51.074;13.764;2023-08-17T11:18:52;100101.22;;;29.54
43802;BMP280;29429;51.074;13.764;2023-08-17T11:21:20;100097.97;;;29.61
43802;BMP280;29429;51.074;13.764;2023-08-17T11:23:48;100103.50;;;29.69
43802;BMP280;29429;51.074;13.764;2023-08-17T11:26:41;100092.97;;;29.71
43802;BMP280;29429;51.074;13.764;2023-08-17T11:29:12;100095.09;;;29.74
43802;BMP280;29429;51.074;13.764;2023-08-17T11:31:39;100085.22;;;29.73
43802;BMP280;29429;51.074;13.764;2023-08-17T11:34:07;100084.56;;;29.76
43802;BMP280;29429;51.074;13.764;2023-08-17T11:36:34;100091.56;;;29.82
43802;BMP280;29429;51.074;13.764;2023-08-17T11:39:01;100092.19;;;29.88
43802;BMP280;29429;51.074;13.764;2023-08-17T11:41:29;100092.84;;;29.93
43802;BMP280;29429;51.074;13.764;2023-08-17T11:43:56;100085.56;;;29.97
43802;BMP280;29429;51.074;13.764;2023-08-17T11:46:23;100081.03;;;30.01
43802;BMP280;29429;51.074;13.764;2023-08-17T11:48:59;100087.00;;;30.03
43802;BMP280;29429;51.074;13.764;2023-08-17T11:51:31;100076.47;;;30.05
43802;BMP280;29429;51.074;13.764;2023-08-17T11:54:01;100075.53;;;30.10
43802;BMP280;29429;51.074;13.764;2023-08-17T11:56:31;100072.09;;;30.13
43802;BMP280;29429;51.074;13.764;2023-08-17T11:58:58;100074.34;;;30.20
43802;BMP280;29429;51.074;13.764;2023-08-17T12:01:25;100064.97;;;30.21
43802;BMP280;29429;51.074;13.764;2023-08-17T12:03:53;100071.44;;;30.25
43802;BMP280;29429;51.074;13.764;2023-08-17T12:06:21;100070.63;;;30.24
43802;BMP280;29429;51.074;13.764;2023-08-17T12:08:49;100064.16;;;30.29
43802;BMP280;29429;51.074;13.764;2023-08-17T12:11:17;100057.84;;;30.37
43802;BMP280;29429;51.074;13.764;2023-08-17T12:13:52;100056.31;;;30.48
43802;BMP280;29429;51.074;13.764;2023-08-17T12:16:22;100058.44;;;30.51
43802;BMP280;29429;51.074;13.764;2023-08-17T12:18:52;100064.56;;;30.56
43802;BMP280;29429;51.074;13.764;2023-08-17T12:21:23;100046.38;;;30.64
43802;BMP280;29429;51.074;13.764;2023-08-17T12:23:51;100044.78;;;30.63
43802;BMP280;29429;51.074;13.764;2023-08-17T12:26:20;100044.34;;;30.52
43802;BMP280;29429;51.074;13.764;2023-08-17T12:28:48;100047.78;;;30.41
43802;BMP280;29429;51.074;13.764;2023-08-17T12:31:22;100049.88;;;30.27
43802;BMP280;29429;51.074;13.764;2023-08-17T12:33:51;100035.81;;;30.20
43802;BMP280;29429;51.074;13.764;2023-08-17T12:36:18;100040.50;;;30.28
43802;BMP280;29429;51.074;13.764;2023-08-17T12:38:47;100037.75;;;30.36
43802;BMP280;29429;51.074;13.764;2023-08-17T12:41:15;100028.78;;;30.48
43802;BMP280;29429;51.074;13.764;2023-08-17T12:43:42;100027.44;;;30.62
43802;BMP280;29429;51.074;13.764;2023-08-17T12:46:09;100009.41;;;30.73
43802;BMP280;29429;51.074;13.764;2023-08-17T12:48:38;100016.75;;;30.90
43802;BMP280;29429;51.074;13.764;2023-08-17T12:51:06;100007.66;;;30.98
43802;BMP280;29429;51.074;13.764;2023-08-17T12:53:34;100006.47;;;31.08
43802;BMP280;29429;51.074;13.764;2023-08-17T12:56:01;100003.50;;;31.13
43802;BMP280;29429;51.074;13.764;2023-08-17T12:58:28;100001.38;;;31.18
43802;BMP280;29429;51.074;13.764;2023-08-17T13:00:55;100006.22;;;31.21
43802;BMP280;29429;51.074;13.764;2023-08-17T13:03:23;100004.84;;;31.27
43802;BMP280;29429;51.074;13.764;2023-08-17T13:05:51;100004.31;;;31.34
43802;BMP280;29429;51.074;13.764;2023-08-17T13:08:21;100008.00;;;31.38
43802;BMP280;29429;51.074;13.764;2023-08-17T13:10:51;100001.88;;;31.32
43802;BMP280;29429;51.074;13.764;2023-08-17T13:13:21;99998.72;;;31.22
43802;BMP280;29429;51.074;13.764;2023-08-17T13:15:58;99997.84;;;31.09
43802;BMP280;29429;51.074;13.764;2023-08-17T13:18:26;100008.47;;;30.99
43802;BMP280;29429;51.074;13.764;2023-08-17T13:20:56;99998.13;;;30.87
43802;BMP280;29429;51.074;13.764;2023-08-17T13:23:23;99985.38;;;30.74
43802;BMP280;29429;51.074;13.764;2023-08-17T13:25:50;99986.84;;;30.71
43802;BMP280;29429;51.074;13.764;2023-08-17T13:28:21;99986.59;;;30.64
43802;BMP280;29429;51.074;13.764;2023-08-17T13:30:48;99972.38;;;30.54
43802;BMP280;29429;51.074;13.764;2023-08-17T13:33:15;99973.03;;;30.51
43802;BMP280;29429;51.074;13.764;2023-08-17T13:35:45;99978.25;;;30.44
43802;BMP280;29429;51.074;13.764;2023-08-17T13:38:12;99979.69;;;30.50
43802;BMP280;29429;51.074;13.764;2023-08-17T13:40:39;99974.94;;;30.59
43802;BMP280;29429;51.074;13.764;2023-08-17T13:43:07;99978.94;;;30.70
43802;BMP280;29429;51.074;13.764;2023-08-17T13:45:39;99984.53;;;30.82
43802;BMP280;29429;51.074;13.764;2023-08-17T13:48:08;99982.75;;;30.86
43802;BMP280;29429;51.074;13.764;2023-08-17T13:50:38;99981.94;;;30.86
43802;BMP280;29429;51.074;13.764;2023-08-17T13:53:07;99984.22;;;30.84
43802;BMP280;29429;51.074;13.764;2023-08-17T13:55:34;99983.41;;;30.83
43802;BMP280;29429;51.074;13.764;2023-08-17T13:58:01;99988.25;;;30.86